This is the latest recevied weather packets stored in our database for station/object OM4MO-10. If no packets are shown the sender has not sent any weather packets the latest 10 day(s).
| Time | Temp. | Humidity | Pressure | Rain* | Wind** | Luminosity | Snow |
|---|---|---|---|---|---|---|---|
| 1777551045 | 12.78° C | 26% | 1046.2 hPa | - | - | - | - |
| 1777549845 | 12.78° C | 27% | 1046 hPa | - | - | - | - |
| 1777548645 | 12.78° C | 27% | 1045.4 hPa | - | - | - | - |
| 1777547445 | 12.78° C | 29% | 1043.8 hPa | - | - | - | - |
| 1777546245 | 12.22° C | 33% | 1042.1 hPa | - | - | - | - |
| 1777545044 | 11.67° C | 30% | 1042.9 hPa | - | - | - | - |
| 1777543844 | 10.56° C | 31% | 1043.1 hPa | - | - | - | - |
| 1777542644 | 10.56° C | 30% | 1042.8 hPa | - | - | - | - |
| 1777541444 | 11.11° C | 34% | 1040.8 hPa | - | - | - | - |
| 1777540244 | 10° C | 32% | 1041.8 hPa | - | - | - | - |
| 1777539044 | 9.44° C | 35% | 1040.6 hPa | - | - | - | - |
| 1777537844 | 8.33° C | 32% | 1041.1 hPa | - | - | - | - |
| 1777536644 | 8.33° C | 34% | 1040.5 hPa | - | - | - | - |
| 1777535444 | 7.78° C | 37% | 1038.8 hPa | - | - | - | - |
| 1777534244 | 8.33° C | 43% | 1035.9 hPa | - | - | - | - |
| 1777533043 | 6.67° C | 40% | 1036.6 hPa | - | - | - | - |
| 1777531843 | 6.11° C | 45% | 1034.4 hPa | - | - | - | - |
| 1777530642 | 6.11° C | 48% | 1033.3 hPa | - | - | - | - |
| 1777529442 | 4.44° C | 52% | 1031 hPa | - | - | - | - |
| 1777528242 | 4.44° C | 54% | 1029.6 hPa | - | - | - | - |
| 1777527042 | 3.33° C | 60% | 1027.9 hPa | - | - | - | - |
| 1777525842 | 2.78° C | 71% | 1026.1 hPa | - | - | - | - |
| 1777524642 | 1.11° C | 90% | 1023.6 hPa | - | - | - | - |
| 1777523442 | 1.67° C | 89% | 1023.6 hPa | - | - | - | - |
| 1777522242 | -0.56° C | 98% | 1023.1 hPa | - | - | - | - |
* Rain since midnight (hover to see other rain measurements)
** Current wind speed in m/s (hover to see current wind gust speed)